Time;durP1;ratioP1;P1;durP2;ratioP2;P2;SDS_P1;SDS_P2;PMS_P1;PMS_P2;Temp;Humidity;BMP_temperature;BMP_pressure;BME280_temperature;BME280_humidity;BME280_pressure;Samples;Min_cycle;Max_cycle;Signal;HPM_P1;HPM_P2
2023/12/29 00:01:13;;;;;;;27.47;14.90;;;;;;;5.23;71.63;97586.94;4891196;29;20577;-63
2023/12/29 00:04:34;;;;;;;31.93;16.10;;;;;;;5.30;71.64;97584.25;4892600;29;20197;-63
2023/12/29 00:07:54;;;;;;;30.67;14.97;;;;;;;5.24;71.52;97574.06;4855766;29;20239;-63
2023/12/29 00:11:15;;;;;;;25.30;12.90;;;;;;;5.25;72.15;97580.91;4854999;29;20576;-67
2023/12/29 00:14:36;;;;;;;19.63;12.10;;;;;;;5.18;72.22;97588.72;4853970;29;20650;-63
2023/12/29 00:17:57;;;;;;;24.03;13.50;;;;;;;5.12;72.05;97581.13;4854745;29;20192;-64
2023/12/29 00:21:18;;;;;;;20.83;11.93;;;;;;;4.99;73.06;97579.63;4860079;29;20210;-66
2023/12/29 00:24:39;;;;;;;14.37;10.23;;;;;;;4.88;73.23;97585.75;4873785;29;20208;-64
2023/12/29 00:28:00;;;;;;;25.93;13.53;;;;;;;4.85;72.96;97580.69;4872322;29;20201;-65
2023/12/29 00:31:36;;;;;;;22.27;13.70;;;;;;;4.70;72.20;97549.25;4882857;29;20963;-64
2023/12/29 00:34:56;;;;;;;23.33;12.23;;;;;;;5.25;72.15;97580.06;4889994;29;20242;-63
2023/12/29 00:38:17;;;;;;;21.50;12.57;;;;;;;5.22;71.18;97574.97;4890542;29;20201;-63
2023/12/29 00:41:38;;;;;;;17.47;11.23;;;;;;;5.16;70.79;97585.34;4891238;29;20248;-65
2023/12/29 00:44:58;;;;;;;19.30;11.43;;;;;;;5.11;71.78;97571.75;4890252;29;20193;-65
2023/12/29 00:48:19;;;;;;;19.77;10.70;;;;;;;5.10;70.83;97565.75;4891131;29;20271;-65
2023/12/29 00:51:43;;;;;;;16.43;9.80;;;;;;;5.12;70.73;97568.28;4890183;29;20207;-65
2023/12/29 00:55:04;;;;;;;20.27;10.73;;;;;;;4.80;70.69;97563.66;4892447;29;20227;-66
2023/12/29 00:58:24;;;;;;;19.77;10.80;;;;;;;4.63;71.38;97568.19;4890828;29;20621;-65
2023/12/29 01:01:45;;;;;;;18.70;10.10;;;;;;;4.51;71.86;97564.09;4890123;29;20199;-66
2023/12/29 01:05:07;;;;;;;16.17;9.63;;;;;;;4.62;71.23;97567.34;4889937;29;20204;-65
2023/12/29 01:08:28;;;;;;;15.20;9.47;;;;;;;4.51;70.93;97552.97;4891962;29;20232;-66
2023/12/29 01:11:49;;;;;;;16.33;8.80;;;;;;;4.43;72.36;97557.38;4889440;29;20193;-67
2023/12/29 01:15:09;;;;;;;19.53;10.27;;;;;;;4.13;71.58;97500.50;4890178;29;20262;-67
2023/12/29 01:18:30;;;;;;;19.43;10.03;;;;;;;4.63;72.62;97557.94;4890655;29;20202;-65
2023/12/29 01:21:51;;;;;;;21.07;10.60;;;;;;;4.32;73.61;97541.25;4891476;29;20203;-65
2023/12/29 01:25:12;;;;;;;12.23;7.27;;;;;;;4.04;75.88;97543.31;4889831;29;20587;-65
2023/12/29 01:28:34;;;;;;;17.27;8.67;;;;;;;3.78;76.83;97527.41;4890191;29;20211;-65
2023/12/29 01:31:54;;;;;;;17.00;8.87;;;;;;;3.85;77.20;97542.69;4887817;29;20204;-63
2023/12/29 01:35:15;;;;;;;19.40;9.20;;;;;;;3.79;77.63;97539.38;4890976;29;20242;-65
2023/12/29 01:38:36;;;;;;;20.67;10.30;;;;;;;3.91;78.06;97534.09;4891189;29;20213;-66
2023/12/29 01:41:57;;;;;;;13.93;9.07;;;;;;;3.75;78.65;97528.28;4890782;29;20622;-65
2023/12/29 01:45:18;;;;;;;20.93;9.90;;;;;;;3.88;78.49;97529.00;4889595;29;20234;-63
2023/12/29 01:48:38;;;;;;;19.10;10.20;;;;;;;3.97;77.72;97519.50;4888269;29;20196;-63
2023/12/29 01:51:59;;;;;;;17.80;10.07;;;;;;;3.79;78.10;97508.63;4890692;29;20249;-64
2023/12/29 01:55:21;;;;;;;18.27;9.30;;;;;;;3.69;78.21;97504.50;4891047;29;20227;-65
2023/12/29 01:58:42;;;;;;;21.03;11.53;;;;;;;3.80;78.45;97518.00;4887464;29;20203;-64
2023/12/29 02:02:02;;;;;;;16.43;9.23;;;;;;;3.77;78.56;97513.75;4887539;29;20282;-66
2023/12/29 02:05:24;;;;;;;17.90;10.43;;;;;;;4.02;77.82;97498.94;4889095;29;20203;-66
2023/12/29 02:08:45;;;;;;;18.27;10.73;;;;;;;4.05;77.08;97492.06;4891097;29;20262;-65
2023/12/29 02:12:05;;;;;;;18.00;9.93;;;;;;;4.24;76.48;97492.69;4888261;29;20207;-65
2023/12/29 02:15:27;;;;;;;22.53;10.83;;;;;;;4.21;76.50;97502.97;4887353;29;20248;-65
2023/12/29 02:18:48;;;;;;;18.77;11.30;;;;;;;4.34;75.50;97495.94;4888299;29;20696;-65
2023/12/29 02:22:09;;;;;;;24.00;10.53;;;;;;;4.52;74.93;97496.53;4889063;29;20187;-65
2023/12/29 02:25:29;;;;;;;19.07;10.23;;;;;;;4.54;75.20;97489.66;4888833;29;20387;-65
2023/12/29 02:28:42;;;;;;;18.90;10.07;;;;;;;4.72;73.54;97485.94;4889384;29;20211;-64
2023/12/29 02:32:04;;;;;;;18.50;10.83;;;;;;;4.43;73.63;97483.84;4889570;29;20195;-65
2023/12/29 02:35:25;;;;;;;19.23;10.80;;;;;;;4.39;73.00;97487.31;4890729;29;20259;-63
2023/12/29 02:38:45;;;;;;;24.07;10.30;;;;;;;4.27;74.58;97477.25;4890737;29;20196;-65
2023/12/29 02:42:06;;;;;;;17.07;9.10;;;;;;;4.02;75.99;97476.72;4887751;29;20277;-65
2023/12/29 02:45:27;;;;;;;18.47;10.10;;;;;;;3.92;77.15;97471.75;4889134;29;20198;-64
2023/12/29 02:48:48;;;;;;;22.57;11.07;;;;;;;4.13;76.51;97471.47;4888255;29;20188;-65
2023/12/29 02:52:09;;;;;;;14.67;8.87;;;;;;;4.17;75.83;97470.56;4890715;29;20202;-63
2023/12/29 02:55:29;;;;;;;13.07;9.13;;;;;;;4.17;75.62;97470.56;4890068;29;20223;-66
2023/12/29 02:58:51;;;;;;;15.93;9.70;;;;;;;4.00;75.85;97467.34;4889012;29;20259;-63
2023/12/29 03:02:13;;;;;;;15.60;8.93;;;;;;;3.97;76.21;97473.41;4889687;29;20290;-63
2023/12/29 03:05:34;;;;;;;14.97;9.27;;;;;;;4.14;75.92;97470.59;4893943;29;20207;-62
2023/12/29 03:08:54;;;;;;;16.17;8.20;;;;;;;3.91;75.63;97457.25;4893910;29;20203;-62
2023/12/29 03:12:15;;;;;;;12.53;7.30;;;;;;;3.71;76.41;97448.97;4893000;29;20195;-63
2023/12/29 03:15:36;;;;;;;15.33;8.23;;;;;;;3.71;76.99;97452.38;4891904;29;20230;-63
2023/12/29 03:18:56;;;;;;;15.30;7.70;;;;;;;3.77;76.45;97447.16;4893569;29;20210;-62
2023/12/29 03:22:18;;;;;;;15.70;8.30;;;;;;;3.84;76.32;97451.34;4891933;29;20247;-63
2023/12/29 03:25:38;;;;;;;13.77;7.50;;;;;;;3.82;76.89;97459.91;4893049;29;20235;-63
2023/12/29 03:28:59;;;;;;;13.00;7.70;;;;;;;3.79;76.85;97453.13;4891864;29;20226;-62
2023/12/29 03:32:20;;;;;;;14.13;8.40;;;;;;;3.75;76.45;97445.50;4892481;29;20306;-62
2023/12/29 03:35:40;;;;;;;15.63;8.67;;;;;;;4.05;75.44;97447.66;4893437;29;20311;-62
2023/12/29 03:39:02;;;;;;;16.13;7.93;;;;;;;4.21;74.52;97443.16;4893375;29;20522;-62
2023/12/29 03:42:23;;;;;;;15.07;8.27;;;;;;;3.94;74.76;97449.50;4892536;29;20197;-63
2023/12/29 03:45:44;;;;;;;15.50;7.67;;;;;;;3.80;76.13;97433.47;4889804;29;20274;-62
2023/12/29 03:49:05;;;;;;;14.30;8.13;;;;;;;3.86;75.54;97451.31;4893028;29;20223;-62
2023/12/29 03:52:26;;;;;;;17.13;8.00;;;;;;;3.73;76.11;97447.25;4891300;29;20200;-62
2023/12/29 03:55:47;;;;;;;12.20;7.37;;;;;;;3.66;76.64;97440.50;4892687;29;20330;-62
2023/12/29 03:59:07;;;;;;;16.40;7.67;;;;;;;3.61;76.89;97437.97;4889581;29;20218;-62
2023/12/29 04:02:28;;;;;;;15.10;8.23;;;;;;;3.73;76.79;97430.13;4892234;29;20203;-61
2023/12/29 04:05:51;;;;;;;17.57;8.37;;;;;;;3.75;76.78;97425.84;4891307;29;20639;-63
2023/12/29 04:09:12;;;;;;;13.03;6.83;;;;;;;3.87;76.44;97433.41;4893110;29;20210;-62
2023/12/29 04:12:32;;;;;;;16.27;8.60;;;;;;;4.01;75.59;97417.81;4891791;29;20199;-62
2023/12/29 04:15:53;;;;;;;18.00;9.17;;;;;;;4.09;74.74;97436.50;4889325;29;20634;-65
2023/12/29 04:19:14;;;;;;;18.80;8.83;;;;;;;3.95;75.53;97425.59;4869964;29;20298;-64
2023/12/29 04:22:34;;;;;;;17.67;8.90;;;;;;;3.99;74.68;97425.53;4875960;29;20188;-62
2023/12/29 04:25:55;;;;;;;12.73;8.20;;;;;;;3.92;74.04;97429.03;4859747;29;20264;-62
2023/12/29 04:28:36;;;;;;;13.80;7.70;;;;;;;3.54;74.72;97430.41;4870034;29;20719;-63
2023/12/29 04:31:04;;;;;;;12.23;7.20;;;;;;;3.15;76.38;97431.72;4874120;29;20207;-64
2023/12/29 04:33:31;;;;;;;17.00;7.33;;;;;;;2.89;77.10;97434.50;4872851;29;20197;-62
2023/12/29 04:35:59;;;;;;;12.50;7.47;;;;;;;2.89;77.93;97425.97;4873873;29;20632;-64
2023/12/29 04:38:26;;;;;;;11.60;6.53;;;;;;;2.96;78.42;97430.19;4873632;29;20283;-64
2023/12/29 04:40:54;;;;;;;11.80;7.23;;;;;;;3.07;78.17;97424.09;4872950;29;20828;-62
2023/12/29 04:43:21;;;;;;;10.33;6.67;;;;;;;3.09;77.90;97419.81;4873120;29;20200;-64
2023/12/29 04:45:48;;;;;;;12.10;6.57;;;;;;;3.29;76.59;97423.03;4872643;29;20258;-63
2023/12/29 04:48:16;;;;;;;13.10;7.13;;;;;;;3.33;76.83;97416.16;4874001;29;20705;-64
2023/12/29 04:50:43;;;;;;;15.60;7.43;;;;;;;3.15;76.20;97388.22;4872318;29;20527;-62
2023/12/29 04:53:10;;;;;;;13.67;6.37;;;;;;;3.50;75.61;97413.38;4874026;29;20760;-64
2023/12/29 04:55:37;;;;;;;10.80;6.33;;;;;;;3.55;75.63;97416.72;4873742;29;20227;-66
2023/12/29 04:58:04;;;;;;;16.77;7.30;;;;;;;3.70;74.83;97419.09;4873315;29;20199;-66
2023/12/29 05:00:31;;;;;;;12.90;7.00;;;;;;;3.55;75.02;97416.72;4873680;29;20208;-67
2023/12/29 05:02:59;;;;;;;15.40;8.23;;;;;;;3.51;75.04;97409.94;4872517;29;20244;-64
2023/12/29 05:05:26;;;;;;;15.70;8.23;;;;;;;3.76;74.59;97430.13;4873336;29;20672;-66
2023/12/29 05:07:53;;;;;;;12.43;6.87;;;;;;;3.62;75.22;97436.28;4871849;29;20264;-67
2023/12/29 05:10:20;;;;;;;14.40;8.40;;;;;;;3.66;75.14;97428.53;4873699;29;20755;-63
2023/12/29 05:12:47;;;;;;;12.27;8.10;;;;;;;3.80;74.85;97443.72;4872749;29;20209;-63
2023/12/29 05:15:14;;;;;;;11.07;6.73;;;;;;;3.75;74.85;97430.16;4865572;29;20220;-67
2023/12/29 05:17:41;;;;;;;11.87;7.13;;;;;;;3.53;74.92;97414.19;4865004;29;20205;-63
2023/12/29 05:20:10;;;;;;;17.80;8.57;;;;;;;3.85;75.08;97429.16;4861611;29;20663;-63
2023/12/29 05:22:37;;;;;;;15.53;8.50;;;;;;;3.75;75.17;97430.16;4863729;29;20925;-63
2023/12/29 05:25:05;;;;;;;24.87;10.83;;;;;;;3.86;74.38;97435.97;4862553;29;20236;-63
2023/12/29 05:27:32;;;;;;;16.27;8.73;;;;;;;3.96;74.65;97423.00;4862149;29;20276;-64
2023/12/29 05:30:02;;;;;;;14.73;8.27;;;;;;;3.79;75.17;97422.38;4869128;29;20209;-64
2023/12/29 05:32:30;;;;;;;17.10;9.20;;;;;;;3.83;74.42;97429.16;4874972;29;20214;-63
2023/12/29 05:34:58;;;;;;;13.60;8.20;;;;;;;3.77;74.74;97429.22;4891459;29;20227;-63
2023/12/29 05:37:25;;;;;;;15.70;8.67;;;;;;;3.76;74.58;97430.13;4864555;29;20197;-65
2023/12/29 05:39:53;;;;;;;16.17;8.30;;;;;;;3.63;74.79;97431.13;4854593;29;20676;-63
2023/12/29 05:42:20;;;;;;;16.40;7.70;;;;;;;3.52;75.54;97421.91;4851639;29;20687;-63
2023/12/29 05:44:47;;;;;;;19.20;10.13;;;;;;;3.52;75.97;97432.13;4854372;29;20240;-63
2023/12/29 05:47:15;;;;;;;17.60;9.37;;;;;;;3.52;76.52;97427.88;4853107;29;20197;-66
2023/12/29 05:49:42;;;;;;;24.03;10.67;;;;;;;3.60;76.12;97430.31;4854197;29;20237;-66
2023/12/29 05:52:51;;;;;;;18.20;9.43;;;;;;;3.74;75.63;97431.84;4852318;29;20208;-65
2023/12/29 05:55:32;;;;;;;16.60;10.00;;;;;;;3.83;74.45;97436.00;4852465;29;20789;-65
2023/12/29 05:57:59;;;;;;;45.77;17.47;;;;;;;3.75;74.29;97432.72;4853708;29;20197;-65
2023/12/29 06:00:27;;;;;;;73.97;27.23;;;;;;;3.93;74.29;97435.03;4852969;29;20212;-64
2023/12/29 06:02:54;;;;;;;59.03;25.47;;;;;;;3.87;74.26;97435.09;4854001;29;20209;-66
2023/12/29 06:05:21;;;;;;;36.83;17.63;;;;;;;3.76;74.69;97424.13;4854322;29;20212;-66
2023/12/29 06:07:49;;;;;;;37.67;17.20;;;;;;;4.07;74.36;97445.91;4852700;29;20200;-65
2023/12/29 06:10:16;;;;;;;37.80;16.27;;;;;;;3.89;74.10;97449.59;4853889;29;20692;-63
2023/12/29 06:12:44;;;;;;;30.70;14.63;;;;;;;3.73;74.18;97432.69;4852250;29;20278;-65
2023/12/29 06:15:14;;;;;;;30.03;15.93;;;;;;;3.81;73.67;97435.19;4854151;29;20240;-67
2023/12/29 06:17:43;;;;;;;32.63;17.07;;;;;;;3.88;73.27;97444.47;4852992;29;20306;-70
2023/12/29 06:20:11;;;;;;;27.27;14.70;;;;;;;3.68;71.93;97431.06;4853472;29;20200;-66
2023/12/29 06:22:41;;;;;;;30.80;15.93;;;;;;;3.74;71.93;97443.81;4853536;29;20303;-65
2023/12/29 06:25:10;;;;;;;24.90;13.00;;;;;;;3.49;72.82;97452.63;4852189;29;20235;-65
2023/12/29 06:27:40;;;;;;;19.90;12.37;;;;;;;3.35;73.02;97429.78;4854083;29;20200;-65
2023/12/29 06:30:08;;;;;;;23.77;12.50;;;;;;;3.41;72.86;97431.41;4851834;29;20212;-64
2023/12/29 06:32:35;;;;;;;38.37;18.83;;;;;;;3.79;72.82;97449.72;4854138;29;20619;-63
2023/12/29 06:35:03;;;;;;;32.73;15.10;;;;;;;4.00;72.27;97451.97;4852492;29;20255;-63
2023/12/29 06:37:32;;;;;;;25.77;12.73;;;;;;;3.91;72.04;97447.84;4853597;29;20264;-64
2023/12/29 06:39:59;;;;;;;18.20;10.83;;;;;;;4.11;71.72;97460.38;4857109;29;20204;-65
2023/12/29 06:42:27;;;;;;;19.47;10.50;;;;;;;3.78;72.19;97435.22;4855747;29;20216;-67
2023/12/29 06:44:54;;;;;;;17.60;10.80;;;;;;;4.08;71.85;97455.31;4857038;29;20206;-63
2023/12/29 06:47:21;;;;;;;21.77;11.23;;;;;;;3.95;72.69;97454.63;4855420;29;20224;-63
2023/12/29 06:49:49;;;;;;;17.50;10.23;;;;;;;3.93;71.85;97455.50;4857285;29;20660;-67
2023/12/29 06:52:17;;;;;;;17.47;9.60;;;;;;;3.84;72.23;97453.91;4855841;29;20211;-65
2023/12/29 06:54:45;;;;;;;15.70;10.27;;;;;;;3.81;72.37;97448.00;4855962;29;20694;-64
2023/12/29 06:57:14;;;;;;;17.47;10.37;;;;;;;3.94;72.21;97459.75;4856504;29;20261;-66
2023/12/29 06:59:41;;;;;;;18.37;11.73;;;;;;;4.01;71.86;97433.19;4855336;29;20292;-65
2023/12/29 07:02:08;;;;;;;25.53;13.97;;;;;;;3.84;72.45;97437.69;4856694;29;20304;-63
2023/12/29 07:04:35;;;;;;;27.43;13.90;;;;;;;4.09;72.08;97441.63;4855005;29;20227;-64
2023/12/29 07:07:03;;;;;;;27.33;13.50;;;;;;;4.21;72.61;97455.97;4855334;29;20607;-65
2023/12/29 07:09:30;;;;;;;23.73;13.20;;;;;;;4.40;71.75;97467.66;4853504;29;20299;-64
2023/12/29 07:11:57;;;;;;;35.40;14.73;;;;;;;4.63;71.70;97456.19;4856451;29;20250;-65
2023/12/29 07:14:24;;;;;;;27.13;13.13;;;;;;;4.78;71.59;97453.34;4856500;29;20702;-65
2023/12/29 07:16:51;;;;;;;26.37;12.97;;;;;;;4.88;71.11;97451.50;4853784;29;20248;-66
2023/12/29 07:19:18;;;;;;;18.43;11.77;;;;;;;4.49;71.39;97386.31;4856742;29;20218;-63
2023/12/29 07:21:45;;;;;;;17.57;10.97;;;;;;;4.81;72.07;97448.19;4854575;29;20685;-63
2023/12/29 07:24:13;;;;;;;25.90;11.03;;;;;;;4.90;nan;97452.31;4856304;29;20213;-65
2023/12/29 07:26:40;;;;;;;19.53;11.07;;;;;;;4.96;72.33;97459.91;4854449;29;20240;-63
2023/12/29 07:29:07;;;;;;;19.93;11.53;;;;;;;5.30;72.24;97455.00;4883180;29;20206;-64
2023/12/29 07:31:39;;;;;;;14.90;9.20;;;;;;;5.38;72.12;97435.19;4876929;29;20251;-64
2023/12/29 07:34:06;;;;;;;20.00;10.77;;;;;;;5.31;71.71;97395.09;4874104;29;20229;-66
2023/12/29 07:36:38;;;;;;;25.63;13.93;;;;;;;5.61;71.42;97425.28;4893194;29;20682;-68
2023/12/29 07:39:07;;;;;;;19.10;11.17;;;;;;;5.88;70.47;97429.06;4891300;29;20209;-65
2023/12/29 07:41:34;;;;;;;18.20;11.40;;;;;;;5.93;70.37;97429.81;4878434;29;20284;-68
2023/12/29 07:44:01;;;;;;;26.83;11.63;;;;;;;6.16;70.31;97446.41;4873354;29;20787;-67
2023/12/29 07:46:28;;;;;;;23.67;13.13;;;;;;;6.27;69.30;97449.59;4874331;29;20221;-66
2023/12/29 07:48:55;;;;;;;18.17;11.83;;;;;;;6.11;69.71;97391.69;4873626;29;20268;-65
2023/12/29 07:51:23;;;;;;;20.37;12.13;;;;;;;6.30;70.06;97418.69;4872974;29;20206;-70
2023/12/29 07:53:50;;;;;;;20.67;12.13;;;;;;;6.39;68.64;97439.03;4886943;29;20209;-65
2023/12/29 07:56:18;;;;;;;22.97;12.60;;;;;;;6.55;70.14;97445.50;4890130;29;20236;-66
2023/12/29 07:58:45;;;;;;;21.27;12.70;;;;;;;6.69;69.42;97441.78;4891995;29;20196;-66
2023/12/29 08:01:15;;;;;;;21.70;12.23;;;;;;;6.91;68.87;97448.09;4891843;29;20293;-64
2023/12/29 08:03:42;;;;;;;20.00;10.73;;;;;;;6.90;69.17;97443.84;4891222;29;20211;-66
2023/12/29 08:06:12;;;;;;;23.80;12.50;;;;;;;7.00;68.92;97437.56;4892430;29;20230;-65
2023/12/29 08:08:40;;;;;;;17.97;11.20;;;;;;;7.04;68.75;97434.03;4890499;29;20199;-64
2023/12/29 08:11:13;;;;;;;19.33;10.93;;;;;;;7.25;68.67;97439.47;4893042;29;20216;-63
2023/12/29 08:13:41;;;;;;;20.77;11.73;;;;;;;7.38;67.94;97440.84;4891497;29;20724;-64
2023/12/29 08:16:08;;;;;;;17.33;10.33;;;;;;;7.24;66.77;97442.09;4879548;29;20238;-67
2023/12/29 08:18:35;;;;;;;20.13;11.73;;;;;;;7.20;67.11;97423.28;4871398;29;20233;-67
2023/12/29 08:21:03;;;;;;;17.40;10.67;;;;;;;7.46;66.95;97439.78;4873866;29;20743;-65
2023/12/29 08:23:30;;;;;;;17.43;10.37;;;;;;;7.55;66.82;97442.94;4873554;29;20676;-65
2023/12/29 08:26:00;;;;;;;15.23;10.27;;;;;;;7.75;66.80;97450.16;4872206;29;20350;-65
2023/12/29 08:28:27;;;;;;;15.77;9.53;;;;;;;7.89;66.04;97454.00;4872177;29;20288;-68
2023/12/29 08:30:56;;;;;;;15.30;9.90;;;;;;;7.60;66.21;97405.03;4871606;29;20208;-65
2023/12/29 08:33:23;;;;;;;16.37;9.93;;;;;;;8.09;66.19;97441.41;4873675;29;20188;-65
2023/12/29 08:35:51;;;;;;;16.07;11.07;;;;;;;8.20;65.88;97439.31;4871862;29;20733;-66
2023/12/29 08:38:19;;;;;;;14.40;8.97;;;;;;;8.32;65.20;97432.16;4873139;29;20252;-68
2023/12/29 08:40:46;;;;;;;10.53;6.93;;;;;;;8.50;63.96;97445.31;4872581;29;20204;-64
2023/12/29 08:43:13;;;;;;;9.60;5.73;;;;;;;8.41;63.24;97442.19;4872069;29;20204;-67
2023/12/29 08:45:41;;;;;;;9.80;5.87;;;;;;;8.41;62.86;97439.63;4872724;29;20196;-64
2023/12/29 08:48:08;;;;;;;11.27;6.73;;;;;;;8.60;63.63;97432.97;4870054;29;20197;-65
2023/12/29 08:50:36;;;;;;;15.77;7.73;;;;;;;8.62;63.72;97420.84;4871889;29;20196;-67
2023/12/29 08:53:03;;;;;;;15.97;7.80;;;;;;;8.82;63.12;97441.72;4871478;29;20216;-64
2023/12/29 08:55:31;;;;;;;14.83;8.83;;;;;;;9.03;62.31;97435.84;4872869;29;20346;-65
2023/12/29 08:57:58;;;;;;;11.53;7.63;;;;;;;9.22;62.67;97426.59;4854804;29;20303;-66
2023/12/29 09:00:26;;;;;;;13.00;8.47;;;;;;;9.23;62.19;97415.38;4869075;29;20236;-66
2023/12/29 09:02:53;;;;;;;10.43;7.10;;;;;;;9.43;62.26;97428.44;4872348;29;20228;-64
2023/12/29 09:05:20;;;;;;;15.43;8.23;;;;;;;9.41;62.08;97427.66;4871319;29;20375;-65
2023/12/29 09:07:47;;;;;;;12.93;8.97;;;;;;;9.28;61.31;97381.59;4873069;29;20214;-66
2023/12/29 09:10:15;;;;;;;15.17;9.10;;;;;;;9.64;60.63;97416.50;4871301;29;20246;-65
2023/12/29 09:12:44;;;;;;;22.10;10.43;;;;;;;9.81;59.12;97394.28;4871425;29;20623;-65
2023/12/29 09:15:11;;;;;;;14.03;9.50;;;;;;;10.10;58.63;97420.81;4871542;29;20252;-68
2023/12/29 09:17:38;;;;;;;15.87;8.53;;;;;;;9.98;58.51;97413.50;4870631;29;20240;-69
2023/12/29 09:20:07;;;;;;;13.70;7.87;;;;;;;10.21;58.14;97410.91;4872600;29;20235;-65
2023/12/29 09:22:38;;;;;;;16.20;9.73;;;;;;;10.26;58.25;97412.41;4870907;29;20751;-65
2023/12/29 09:25:05;;;;;;;20.60;11.07;;;;;;;10.43;57.69;97404.00;4872206;29;20597;-68
2023/12/29 09:27:33;;;;;;;16.27;8.83;;;;;;;10.37;57.06;97393.88;4869144;29;20255;-66
2023/12/29 09:30:00;;;;;;;17.20;9.37;;;;;;;10.58;57.48;97409.44;4870999;29;20225;-65
2023/12/29 09:32:29;;;;;;;15.00;8.97;;;;;;;10.60;56.82;97396.41;4871483;29;20236;-68
2023/12/29 09:34:56;;;;;;;19.13;10.53;;;;;;;10.64;56.63;97392.78;4871360;29;20204;-66
2023/12/29 09:37:23;;;;;;;14.57;8.03;;;;;;;10.72;55.67;97393.31;4872211;29;20346;-67
2023/12/29 09:39:50;;;;;;;18.27;8.70;;;;;;;10.97;55.34;97399.19;4853809;29;20276;-65
2023/12/29 09:42:24;;;;;;;13.23;8.60;;;;;;;11.08;54.64;97394.41;4855638;29;20205;-66
2023/12/29 09:44:52;;;;;;;13.00;8.23;;;;;;;11.12;55.24;97390.78;4870920;29;20214;-67
2023/12/29 09:47:25;;;;;;;13.13;8.33;;;;;;;11.26;54.44;97397.97;4872397;29;20283;-67
2023/12/29 09:49:54;;;;;;;13.20;7.63;;;;;;;11.26;54.14;97392.78;4871450;29;20291;-66
2023/12/29 09:52:24;;;;;;;16.33;8.90;;;;;;;11.25;54.58;97372.97;4871903;29;20235;-66
2023/12/29 09:54:52;;;;;;;14.27;8.60;;;;;;;11.49;54.23;97379.66;4887920;29;20209;-67
2023/12/29 09:57:20;;;;;;;16.57;10.43;;;;;;;11.60;53.47;97379.19;4887623;29;20316;-66
2023/12/29 09:59:51;;;;;;;17.73;9.60;;;;;;;11.54;53.57;97377.69;4890664;29;20193;-69
2023/12/29 10:02:20;;;;;;;16.10;9.97;;;;;;;11.41;53.56;97367.03;4888762;29;20209;-67
2023/12/29 10:04:47;;;;;;;18.70;10.70;;;;;;;11.61;53.21;97370.47;4890799;29;20377;-67
2023/12/29 10:07:28;;;;;;;25.07;12.00;;;;;;;11.80;53.57;97368.78;4889646;29;20277;-67
2023/12/29 10:09:58;;;;;;;24.07;10.07;;;;;;;11.97;52.24;97361.09;4889106;29;20875;-67
2023/12/29 10:12:28;;;;;;;18.30;11.33;;;;;;;11.85;51.88;97339.13;4890951;29;20742;-66
2023/12/29 10:15:01;;;;;;;22.53;10.90;;;;;;;12.07;51.30;97357.16;4890045;29;20214;-66
2023/12/29 10:17:39;;;;;;;22.20;12.67;;;;;;;12.20;51.07;97358.22;4894132;29;20250;-68
2023/12/29 10:20:17;;;;;;;23.07;12.07;;;;;;;12.39;50.32;97358.22;4889497;29;20192;-68
2023/12/29 10:23:00;;;;;;;23.40;12.93;;;;;;;12.46;50.50;97350.06;4882710;29;20212;-67
2023/12/29 10:25:28;;;;;;;23.83;14.03;;;;;;;12.36;50.12;97335.84;4874000;29;20237;-67
2023/12/29 10:27:56;;;;;;;21.97;13.00;;;;;;;12.45;51.87;97355.31;4873939;29;20255;-65
2023/12/29 10:30:24;;;;;;;25.20;14.03;;;;;;;12.38;51.64;97348.75;4875317;29;20197;-68
2023/12/29 10:33:02;;;;;;;23.53;14.03;;;;;;;12.25;51.83;97281.81;4892625;29;20208;-67
2023/12/29 10:35:31;;;;;;;34.17;15.13;;;;;;;12.64;50.53;97336.19;4893172;29;20208;-65
2023/12/29 10:38:10;;;;;;;25.43;12.67;;;;;;;12.77;50.51;97323.41;4894226;29;20244;-70
2023/12/29 10:40:39;;;;;;;25.47;13.03;;;;;;;12.84;48.99;97322.19;4892380;29;20216;-67
2023/12/29 10:43:09;;;;;;;17.07;9.63;;;;;;;13.02;48.36;97326.47;4894290;29;20206;-67
2023/12/29 10:45:37;;;;;;;24.47;12.37;;;;;;;12.88;48.09;97315.94;4873651;29;20726;-67
2023/12/29 10:48:05;;;;;;;21.93;11.53;;;;;;;13.03;49.67;97321.19;4873446;29;20221;-66
2023/12/29 10:51:25;;;;;;;15.57;9.13;;;;;;;13.17;46.41;97307.50;4874360;29;20208;-66
2023/12/29 10:54:49;;;;;;;14.97;9.43;;;;;;;13.22;47.19;97312.47;4873267;29;20200;-69
2023/12/29 10:57:30;;;;;;;14.27;8.13;;;;;;;13.30;46.06;97315.50;4873919;29;20227;-68
2023/12/29 11:00:03;;;;;;;16.17;9.27;;;;;;;13.40;46.28;97295.91;4873511;29;20675;-69
2023/12/29 11:02:33;;;;;;;13.97;8.63;;;;;;;13.58;46.53;97307.94;4873577;29;20926;-71
2023/12/29 11:05:06;;;;;;;15.27;8.57;;;;;;;13.40;45.83;97285.50;4875347;29;20290;-67
2023/12/29 11:07:41;;;;;;;13.23;7.27;;;;;;;13.70;45.93;97296.88;4872666;29;20237;-68
2023/12/29 11:10:09;;;;;;;12.20;7.47;;;;;;;13.84;45.45;97290.00;4874128;29;20195;-68
2023/12/29 11:12:38;;;;;;;12.97;7.00;;;;;;;13.65;45.55;97294.53;4875418;29;20642;-67
2023/12/29 11:15:10;;;;;;;11.60;6.67;;;;;;;13.62;45.30;97279.06;4877516;29;20252;-66
2023/12/29 11:17:37;;;;;;;12.00;6.87;;;;;;;13.91;45.20;97289.66;4881191;29;20247;-68
2023/12/29 11:20:05;;;;;;;13.70;6.57;;;;;;;13.95;44.71;97273.78;4875545;29;20575;-69
2023/12/29 11:22:34;;;;;;;7.57;4.60;;;;;;;13.94;44.30;97279.06;4876592;29;20204;-67
2023/12/29 11:25:01;;;;;;;9.47;5.87;;;;;;;13.71;44.24;97272.53;4873800;29;20227;-67
2023/12/29 11:27:31;;;;;;;11.60;6.47;;;;;;;13.90;44.05;97273.19;4872522;29;20199;-69
2023/12/29 11:30:00;;;;;;;9.80;7.40;;;;;;;13.75;44.55;97245.41;4874748;29;20285;-68
2023/12/29 11:32:49;;;;;;;12.07;8.10;;;;;;;13.97;43.92;97263.28;4871800;29;20192;-67
2023/12/29 11:35:19;;;;;;;13.10;7.93;;;;;;;14.17;44.50;97263.84;4874710;29;20319;-69
2023/12/29 11:37:56;;;;;;;10.27;6.30;;;;;;;14.13;44.12;97259.75;4873033;29;20337;-67
2023/12/29 11:40:30;;;;;;;14.97;7.60;;;;;;;14.19;44.04;97254.19;4872001;29;20706;-65
2023/12/29 11:43:03;;;;;;;8.17;4.97;;;;;;;14.38;42.81;97269.66;4873043;29;20278;-66
2023/12/29 11:45:35;;;;;;;11.10;6.73;;;;;;;14.42;43.31;97261.56;4872672;29;20405;-67
2023/12/29 11:48:04;;;;;;;9.03;5.50;;;;;;;14.40;43.14;97257.38;4874173;29;20232;-67
2023/12/29 11:50:38;;;;;;;8.40;4.90;;;;;;;14.19;42.40;97248.13;4873036;29;20227;-66
2023/12/29 11:53:05;;;;;;;10.07;5.37;;;;;;;14.23;42.66;97257.44;4874237;29;20210;-65
2023/12/29 11:55:36;;;;;;;9.50;5.47;;;;;;;14.25;43.01;97222.56;4873964;29;20241;-65
2023/12/29 11:58:22;;;;;;;10.23;6.90;;;;;;;14.41;42.67;97244.25;4872782;29;20617;-67
2023/12/29 12:00:50;;;;;;;9.80;6.27;;;;;;;14.27;41.89;97236.34;4872666;29;20199;-66
2023/12/29 12:03:25;;;;;;;12.60;8.00;;;;;;;14.40;42.77;97247.78;4872590;29;20700;-66
2023/12/29 12:06:02;;;;;;;16.00;7.87;;;;;;;14.50;42.52;97245.50;4874139;29;20207;-65
2023/12/29 12:08:35;;;;;;;13.33;7.33;;;;;;;14.47;43.22;97243.88;4873740;29;20910;-68
2023/12/29 12:11:37;;;;;;;12.50;6.73;;;;;;;14.45;43.50;97256.16;4872669;29;20192;-65
2023/12/29 12:14:04;;;;;;;16.93;7.20;;;;;;;14.29;44.08;97234.53;4853872;29;20207;-66
2023/12/29 12:16:51;;;;;;;12.63;7.13;;;;;;;14.44;43.56;97244.09;4852503;29;20282;-67
2023/12/29 12:19:20;;;;;;;16.23;7.40;;;;;;;14.46;44.26;97242.22;4854464;29;20199;-69
2023/12/29 12:21:50;;;;;;;16.47;8.63;;;;;;;14.46;44.56;97242.22;4855059;29;20781;-66
2023/12/29 12:24:20;;;;;;;14.53;8.43;;;;;;;14.24;45.09;97235.69;4853449;29;20203;-67
2023/12/29 12:26:49;;;;;;;11.00;6.83;;;;;;;14.33;45.24;97241.25;4855467;29;20664;-67
2023/12/29 12:29:17;;;;;;;10.97;7.27;;;;;;;14.30;45.00;97240.59;4853771;29;20319;-65
2023/12/29 12:31:57;;;;;;;16.90;8.37;;;;;;;14.41;44.98;97233.81;4855111;29;20211;-66
2023/12/29 12:34:25;;;;;;;19.57;9.30;;;;;;;14.40;44.77;97231.31;4853465;29;20232;-66
2023/12/29 12:36:59;;;;;;;20.10;8.07;;;;;;;14.55;44.74;97240.81;4851529;29;20332;-66
2023/12/29 12:39:41;;;;;;;20.00;9.60;;;;;;;14.47;44.73;97246.50;4853725;29;20193;-67
2023/12/29 12:42:08;;;;;;;17.93;9.10;;;;;;;14.32;45.38;97242.16;4853515;29;20201;-65
2023/12/29 12:44:46;;;;;;;15.97;7.20;;;;;;;14.37;45.99;97247.97;4855211;29;20209;-66
2023/12/29 12:47:17;;;;;;;14.27;6.50;;;;;;;14.20;46.08;97229.81;4853158;29;20218;-67